Hikosan Maru — JD3735 — position and weather

sailwx.info

Track history (hours):
 
Tides and Currents Weather Stations Pressure Air Temp Water Temp Dewpoint Dewpoint Depression Visibility Wind Speed Wind Dir Waves Ship Positions

Hikosan Maru

Last reported at 2017-Aug-31 08:48 UTC. Time now 2017-Sep-21 17:46 UTC.
Position N 34°36' E 134°56'.
Warning: this ship's position is 21 days out of date.

Length 76 m; draft 4 m.

Type: Cargo ship. MMSI: 431005844.

Date/timePositionNaut miles runAvg speedWind from/ knotsBaromVisibWave heightAir tempDewpointWater temp
2017-Aug-31 08:48N 34°36' E 134°56'512.8
2017-Aug-31 08:24N 34°37' E 135°02'511.7
2017-Aug-31 08:00N 34°36' E 135°07'611.7
2017-Aug-31 07:30N 34°37' E 135°14'511.0
2017-Aug-31 07:00N 34°39' E 135°21'5 8.9
2017-Aug-31 06:30N 34°42' E 135°25'0 0.0
2017-Aug-31 04:42N 34°42' E 135°25'0 0.0
2017-Aug-31 04:24N 34°42' E 135°25'0 0.0
2017-Aug-31 03:54N 34°42' E 135°25'0 0.0
2017-Aug-31 02:00N 34°42' E 135°25'0 0.0
2017-Aug-31 01:30N 34°42' E 135°25'0 0.0
2017-Aug-31 01:00N 34°42' E 135°25'0 0.0
2017-Aug-31 00:24N 34°42' E 135°25'0 0.0
2017-Aug-30 23:54N 34°42' E 135°25'0 0.0
2017-Aug-30 23:30N 34°42' E 135°25'0 0.0
2017-Aug-30 22:48N 34°42' E 135°25'0 0.0
2017-Aug-30 22:30N 34°42' E 135°25'1 2.4
2017-Aug-30 22:01N 34°41' E 135°24'3 6.4
2017-Aug-30 21:30N 34°39' E 135°21'0 0.0
2017-Aug-30 20:53N 34°39' E 135°21'0 0.0
2017-Aug-30 20:29N 34°39' E 135°21'0 0.0
2017-Aug-30 19:58N 34°39' E 135°21'0 0.0
2017-Aug-30 19:28N 34°39' E 135°21'0 0.0
2017-Aug-30 18:59N 34°39' E 135°21'0 0.0
2017-Aug-30 18:29N 34°39' E 135°21'0 0.0
2017-Aug-30 17:53N 34°39' E 135°21'0 0.0
2017-Aug-30 17:17N 34°39' E 135°21'0 0.0
2017-Aug-30 16:59N 34°39' E 135°21'0 0.0
2017-Aug-30 16:29N 34°39' E 135°21'0 0.0
2017-Aug-30 15:52N 34°39' E 135°21'0 0.0
2017-Aug-30 15:22N 34°39' E 135°21'0 0.0
2017-Aug-30 14:59N 34°39' E 135°21'0 0.0
2017-Aug-30 14:29N 34°39' E 135°21'0 0.0
2017-Aug-30 13:59N 34°39' E 135°21'0 0.0
2017-Aug-30 13:28N 34°39' E 135°21'0 0.0
2017-Aug-30 12:59N 34°39' E 135°21'0 0.0
2017-Aug-30 12:29N 34°39' E 135°21'0 0.0
2017-Aug-30 11:53N 34°39' E 135°21'0 0.0
2017-Aug-30 11:28N 34°39' E 135°21'0 0.0
2017-Aug-30 10:59N 34°39' E 135°21'0 0.1
2017-Aug-30 10:30N 34°39' E 135°21'4 7.5
2017-Aug-30 10:00N 34°37' E 135°17'5 9.5
2017-Aug-30 09:30N 34°35' E 135°12'510.5
2017-Aug-30 09:00N 34°35' E 135°06'  
2017-Aug-24 08:39N 34°35' E 134°53'1 9.9
2017-Aug-24 08:30N 34°36' E 134°54'5 9.4
2017-Aug-24 07:57N 34°37' E 135°00'3 6.7
2017-Aug-24 07:30N 34°36' E 135°03'4 8.3
2017-Aug-24 07:00N 34°36' E 135°08'510.9
2017-Aug-24 06:30N 34°36' E 135°15'5 9.7
2017-Aug-24 06:00N 34°40' E 135°18'3 5.8
2017-Aug-24 05:30N 34°42' E 135°16'0 0.0
2017-Aug-24 04:58N 34°42' E 135°16'0 0.0
2017-Aug-24 04:28N 34°42' E 135°16'0 0.0
2017-Aug-24 03:40N 34°42' E 135°16'0 0.0
2017-Aug-24 03:22N 34°42' E 135°16'0 0.0
2017-Aug-24 02:46N 34°42' E 135°16'0 0.0
2017-Aug-24 02:16N 34°42' E 135°16'0 0.0
2017-Aug-24 01:51N 34°42' E 135°16'0 0.0
2017-Aug-24 01:28N 34°42' E 135°16'0 0.0
2017-Aug-24 00:58N 34°42' E 135°16'0 0.0
2017-Aug-24 00:28N 34°42' E 135°16'0 0.0
2017-Aug-23 23:57N 34°42' E 135°16'0 0.0
2017-Aug-23 23:16N 34°42' E 135°16'0 0.0
2017-Aug-23 22:46N 34°42' E 135°16'0 0.0
2017-Aug-23 22:22N 34°42' E 135°16'0 0.0
2017-Aug-23 21:58N 34°42' E 135°16'0 0.0
2017-Aug-23 21:22N 34°42' E 135°16'0 0.0
2017-Aug-23 20:58N 34°42' E 135°16'0 0.0
2017-Aug-23 20:22N 34°42' E 135°16'0 0.0
2017-Aug-23 19:58N 34°42' E 135°16'0 0.0
2017-Aug-23 19:28N 34°42' E 135°16'0 0.0
2017-Aug-23 18:58N 34°42' E 135°16'0 0.0
2017-Aug-23 18:27N 34°42' E 135°16'0 0.0
2017-Aug-23 17:58N 34°42' E 135°16'0 0.0
2017-Aug-23 17:22N 34°42' E 135°16'0 0.0
2017-Aug-23 16:51N 34°42' E 135°16'0 0.0
2017-Aug-23 16:28N 34°42' E 135°16'0 0.0
2017-Aug-23 15:58N 34°42' E 135°16'0 0.0
2017-Aug-23 15:27N 34°42' E 135°16'0 0.0
2017-Aug-23 14:58N 34°42' E 135°16'0 0.0
2017-Aug-23 14:21N 34°42' E 135°16'0 0.0
2017-Aug-23 13:28N 34°42' E 135°16'0 0.0
2017-Aug-23 12:57N 34°42' E 135°16'0 0.0
2017-Aug-23 12:15N 34°42' E 135°16'0 0.0
2017-Aug-23 11:57N 34°42' E 135°16'0 0.0
2017-Aug-23 11:28N 34°42' E 135°16'0 0.0
2017-Aug-23 10:58N 34°42' E 135°16'0 0.0
2017-Aug-23 10:28N 34°42' E 135°16'0 0.0
2017-Aug-23 09:52N 34°42' E 135°16'0 0.0
2017-Aug-23 09:28N 34°42' E 135°16'0 0.0
2017-Aug-23 08:57N 34°42' E 135°16'0 0.0
2017-Aug-23 08:27N 34°42' E 135°16'0 0.0
2017-Aug-23 07:57N 34°42' E 135°16'0 0.0
2017-Aug-23 07:28N 34°42' E 135°16'0 0.0
2017-Aug-23 06:57N 34°42' E 135°16'0 0.0
2017-Aug-23 06:21N 34°42' E 135°16'0 0.0
2017-Aug-23 05:57N 34°42' E 135°16'0 0.0
2017-Aug-23 05:27N 34°42' E 135°16'0 0.1
2017-Aug-23 04:58N 34°42' E 135°16'2 5.0
2017-Aug-23 04:30N 34°41' E 135°18'5 9.6
2017-Aug-23 04:00N 34°36' E 135°16'510.4
2017-Aug-23 03:30N 34°35' E 135°10'511.0
2017-Aug-23 03:00N 34°36' E 135°03'  
Track history (hours):
 
Tides and Currents Weather Stations Pressure Air Temp Water Temp Dewpoint Dewpoint Depression Visibility Wind Speed Wind Dir Waves Ship Positions

Hikosan Maru

Last reported at 2017-Aug-31 08:48 UTC. Time now 2017-Sep-21 17:46 UTC.
Position N 34°36' E 134°56'.
Warning: this ship's position is 21 days out of date.

Length 76 m; draft 4 m.

Type: Cargo ship. MMSI: 431005844.

Date/timePositionNaut miles runAvg speedWind from/ knotsBaromVisibWave heightAir tempDewpointWater temp
2017-Aug-31 08:48N 34°36' E 134°56'512.8
2017-Aug-31 08:24N 34°37' E 135°02'511.7
2017-Aug-31 08:00N 34°36' E 135°07'611.7
2017-Aug-31 07:30N 34°37' E 135°14'511.0
2017-Aug-31 07:00N 34°39' E 135°21'5 8.9
2017-Aug-31 06:30N 34°42' E 135°25'0 0.0
2017-Aug-31 04:42N 34°42' E 135°25'0 0.0
2017-Aug-31 04:24N 34°42' E 135°25'0 0.0
2017-Aug-31 03:54N 34°42' E 135°25'0 0.0
2017-Aug-31 02:00N 34°42' E 135°25'0 0.0
2017-Aug-31 01:30N 34°42' E 135°25'0 0.0
2017-Aug-31 01:00N 34°42' E 135°25'0 0.0
2017-Aug-31 00:24N 34°42' E 135°25'0 0.0
2017-Aug-30 23:54N 34°42' E 135°25'0 0.0
2017-Aug-30 23:30N 34°42' E 135°25'0 0.0
2017-Aug-30 22:48N 34°42' E 135°25'0 0.0
2017-Aug-30 22:30N 34°42' E 135°25'1 2.4
2017-Aug-30 22:01N 34°41' E 135°24'3 6.4
2017-Aug-30 21:30N 34°39' E 135°21'0 0.0
2017-Aug-30 20:53N 34°39' E 135°21'0 0.0
2017-Aug-30 20:29N 34°39' E 135°21'0 0.0
2017-Aug-30 19:58N 34°39' E 135°21'0 0.0
2017-Aug-30 19:28N 34°39' E 135°21'0 0.0
2017-Aug-30 18:59N 34°39' E 135°21'0 0.0
2017-Aug-30 18:29N 34°39' E 135°21'0 0.0
2017-Aug-30 17:53N 34°39' E 135°21'0 0.0
2017-Aug-30 17:17N 34°39' E 135°21'0 0.0
2017-Aug-30 16:59N 34°39' E 135°21'0 0.0
2017-Aug-30 16:29N 34°39' E 135°21'0 0.0
2017-Aug-30 15:52N 34°39' E 135°21'0 0.0
2017-Aug-30 15:22N 34°39' E 135°21'0 0.0
2017-Aug-30 14:59N 34°39' E 135°21'0 0.0
2017-Aug-30 14:29N 34°39' E 135°21'0 0.0
2017-Aug-30 13:59N 34°39' E 135°21'0 0.0
2017-Aug-30 13:28N 34°39' E 135°21'0 0.0
2017-Aug-30 12:59N 34°39' E 135°21'0 0.0
2017-Aug-30 12:29N 34°39' E 135°21'0 0.0
2017-Aug-30 11:53N 34°39' E 135°21'0 0.0
2017-Aug-30 11:28N 34°39' E 135°21'0 0.0
2017-Aug-30 10:59N 34°39' E 135°21'0 0.1
2017-Aug-30 10:30N 34°39' E 135°21'4 7.5
2017-Aug-30 10:00N 34°37' E 135°17'5 9.5
2017-Aug-30 09:30N 34°35' E 135°12'510.5
2017-Aug-30 09:00N 34°35' E 135°06'  
2017-Aug-24 08:39N 34°35' E 134°53'1 9.9
2017-Aug-24 08:30N 34°36' E 134°54'5 9.4
2017-Aug-24 07:57N 34°37' E 135°00'3 6.7
2017-Aug-24 07:30N 34°36' E 135°03'4 8.3
2017-Aug-24 07:00N 34°36' E 135°08'510.9
2017-Aug-24 06:30N 34°36' E 135°15'5 9.7
2017-Aug-24 06:00N 34°40' E 135°18'3 5.8
2017-Aug-24 05:30N 34°42' E 135°16'0 0.0
2017-Aug-24 04:58N 34°42' E 135°16'0 0.0
2017-Aug-24 04:28N 34°42' E 135°16'0 0.0
2017-Aug-24 03:40N 34°42' E 135°16'0 0.0
2017-Aug-24 03:22N 34°42' E 135°16'0 0.0
2017-Aug-24 02:46N 34°42' E 135°16'0 0.0
2017-Aug-24 02:16N 34°42' E 135°16'0 0.0
2017-Aug-24 01:51N 34°42' E 135°16'0 0.0
2017-Aug-24 01:28N 34°42' E 135°16'0 0.0
2017-Aug-24 00:58N 34°42' E 135°16'0 0.0
2017-Aug-24 00:28N 34°42' E 135°16'0 0.0
2017-Aug-23 23:57N 34°42' E 135°16'0 0.0
2017-Aug-23 23:16N 34°42' E 135°16'0 0.0
2017-Aug-23 22:46N 34°42' E 135°16'0 0.0
2017-Aug-23 22:22N 34°42' E 135°16'0 0.0
2017-Aug-23 21:58N 34°42' E 135°16'0 0.0
2017-Aug-23 21:22N 34°42' E 135°16'0 0.0
2017-Aug-23 20:58N 34°42' E 135°16'0 0.0
2017-Aug-23 20:22N 34°42' E 135°16'0 0.0
2017-Aug-23 19:58N 34°42' E 135°16'0 0.0
2017-Aug-23 19:28N 34°42' E 135°16'0 0.0
2017-Aug-23 18:58N 34°42' E 135°16'0 0.0
2017-Aug-23 18:27N 34°42' E 135°16'0 0.0
2017-Aug-23 17:58N 34°42' E 135°16'0 0.0
2017-Aug-23 17:22N 34°42' E 135°16'0 0.0
2017-Aug-23 16:51N 34°42' E 135°16'0 0.0
2017-Aug-23 16:28N 34°42' E 135°16'0 0.0
2017-Aug-23 15:58N 34°42' E 135°16'0 0.0
2017-Aug-23 15:27N 34°42' E 135°16'0 0.0
2017-Aug-23 14:58N 34°42' E 135°16'0 0.0
2017-Aug-23 14:21N 34°42' E 135°16'0 0.0
2017-Aug-23 13:28N 34°42' E 135°16'0 0.0
2017-Aug-23 12:57N 34°42' E 135°16'0 0.0
2017-Aug-23 12:15N 34°42' E 135°16'0 0.0
2017-Aug-23 11:57N 34°42' E 135°16'0 0.0
2017-Aug-23 11:28N 34°42' E 135°16'0 0.0
2017-Aug-23 10:58N 34°42' E 135°16'0 0.0
2017-Aug-23 10:28N 34°42' E 135°16'0 0.0
2017-Aug-23 09:52N 34°42' E 135°16'0 0.0
2017-Aug-23 09:28N 34°42' E 135°16'0 0.0
2017-Aug-23 08:57N 34°42' E 135°16'0 0.0
2017-Aug-23 08:27N 34°42' E 135°16'0 0.0
2017-Aug-23 07:57N 34°42' E 135°16'0 0.0
2017-Aug-23 07:28N 34°42' E 135°16'0 0.0
2017-Aug-23 06:57N 34°42' E 135°16'0 0.0
2017-Aug-23 06:21N 34°42' E 135°16'0 0.0
2017-Aug-23 05:57N 34°42' E 135°16'0 0.0
2017-Aug-23 05:27N 34°42' E 135°16'0 0.1
2017-Aug-23 04:58N 34°42' E 135°16'2 5.0
2017-Aug-23 04:30N 34°41' E 135°18'5 9.6
2017-Aug-23 04:00N 34°36' E 135°16'510.4
2017-Aug-23 03:30N 34°35' E 135°10'511.0
2017-Aug-23 03:00N 34°36' E 135°03'  

Dump ship's entire track history